sensor_id;sensor_type;location;lat;lon;timestamp;P1;durP1;ratioP1;P2;durP2;ratioP2
72125;SDS011;59999;51.676;22.650;2022-10-17T00:00:24;21.83;;;10.17;;
72125;SDS011;59999;51.676;22.650;2022-10-17T00:03:09;18.70;;;10.27;;
72125;SDS011;59999;51.676;22.650;2022-10-17T00:05:39;19.38;;;10.20;;
72125;SDS011;59999;51.676;22.650;2022-10-17T00:08:10;17.55;;;9.20;;
72125;SDS011;59999;51.676;22.650;2022-10-17T00:10:38;18.80;;;9.70;;
72125;SDS011;59999;51.676;22.650;2022-10-17T00:13:05;23.47;;;10.83;;
72125;SDS011;59999;51.676;22.650;2022-10-17T00:15:32;18.88;;;9.98;;
72125;SDS011;59999;51.676;22.650;2022-10-17T00:17:58;22.25;;;11.25;;
72125;SDS011;59999;51.676;22.650;2022-10-17T00:20:24;20.05;;;11.02;;
72125;SDS011;59999;51.676;22.650;2022-10-17T00:22:50;18.88;;;10.43;;
72125;SDS011;59999;51.676;22.650;2022-10-17T00:25:17;18.43;;;10.23;;
72125;SDS011;59999;51.676;22.650;2022-10-17T00:27:43;20.20;;;10.52;;
72125;SDS011;59999;51.676;22.650;2022-10-17T00:30:11;19.75;;;10.80;;
72125;SDS011;59999;51.676;22.650;2022-10-17T00:32:38;23.67;;;10.68;;
72125;SDS011;59999;51.676;22.650;2022-10-17T00:35:05;22.15;;;11.13;;
72125;SDS011;59999;51.676;22.650;2022-10-17T00:37:32;19.90;;;10.87;;
72125;SDS011;59999;51.676;22.650;2022-10-17T00:39:58;17.52;;;9.52;;
72125;SDS011;59999;51.676;22.650;2022-10-17T00:42:24;19.63;;;11.05;;
72125;SDS011;59999;51.676;22.650;2022-10-17T00:44:59;18.65;;;10.02;;
72125;SDS011;59999;51.676;22.650;2022-10-17T00:47:30;21.43;;;10.93;;
72125;SDS011;59999;51.676;22.650;2022-10-17T00:49:57;21.45;;;10.48;;
72125;SDS011;59999;51.676;22.650;2022-10-17T00:52:25;18.83;;;11.20;;
72125;SDS011;59999;51.676;22.650;2022-10-17T00:54:53;19.65;;;10.10;;
72125;SDS011;59999;51.676;22.650;2022-10-17T00:57:23;19.38;;;10.73;;
72125;SDS011;59999;51.676;22.650;2022-10-17T00:59:50;19.10;;;9.63;;
72125;SDS011;59999;51.676;22.650;2022-10-17T01:02:20;21.13;;;10.75;;
72125;SDS011;59999;51.676;22.650;2022-10-17T01:04:48;18.55;;;10.93;;
72125;SDS011;59999;51.676;22.650;2022-10-17T01:07:16;21.60;;;10.77;;
72125;SDS011;59999;51.676;22.650;2022-10-17T01:09:42;21.77;;;11.48;;
72125;SDS011;59999;51.676;22.650;2022-10-17T01:12:23;19.70;;;10.70;;
72125;SDS011;59999;51.676;22.650;2022-10-17T01:18:07;19.05;;;10.07;;
72125;SDS011;59999;51.676;22.650;2022-10-17T01:23:59;20.73;;;10.32;;
72125;SDS011;59999;51.676;22.650;2022-10-17T01:26:43;21.50;;;10.90;;
72125;SDS011;59999;51.676;22.650;2022-10-17T01:34:55;25.35;;;11.73;;
72125;SDS011;59999;51.676;22.650;2022-10-17T01:37:29;26.35;;;12.00;;
72125;SDS011;59999;51.676;22.650;2022-10-17T01:45:48;20.33;;;11.45;;
72125;SDS011;59999;51.676;22.650;2022-10-17T01:48:22;20.35;;;10.73;;
72125;SDS011;59999;51.676;22.650;2022-10-17T01:50:53;23.67;;;11.48;;
72125;SDS011;59999;51.676;22.650;2022-10-17T01:53:30;26.33;;;11.87;;
72125;SDS011;59999;51.676;22.650;2022-10-17T01:55:59;22.17;;;12.07;;
72125;SDS011;59999;51.676;22.650;2022-10-17T01:58:29;22.80;;;12.27;;
72125;SDS011;59999;51.676;22.650;2022-10-17T02:01:02;21.05;;;11.25;;
72125;SDS011;59999;51.676;22.650;2022-10-17T02:03:31;21.65;;;11.98;;
72125;SDS011;59999;51.676;22.650;2022-10-17T02:05:59;25.73;;;11.47;;
72125;SDS011;59999;51.676;22.650;2022-10-17T02:08:26;22.27;;;11.13;;
72125;SDS011;59999;51.676;22.650;2022-10-17T02:11:00;20.92;;;11.40;;
72125;SDS011;59999;51.676;22.650;2022-10-17T02:27:13;23.40;;;11.85;;
72125;SDS011;59999;51.676;22.650;2022-10-17T02:29:49;26.73;;;12.70;;
72125;SDS011;59999;51.676;22.650;2022-10-17T02:32:33;20.67;;;11.45;;
72125;SDS011;59999;51.676;22.650;2022-10-17T02:35:03;22.00;;;11.73;;
72125;SDS011;59999;51.676;22.650;2022-10-17T02:37:34;19.63;;;10.77;;
72125;SDS011;59999;51.676;22.650;2022-10-17T02:40:01;22.40;;;11.75;;
72125;SDS011;59999;51.676;22.650;2022-10-17T02:42:29;24.47;;;11.57;;
72125;SDS011;59999;51.676;22.650;2022-10-17T02:44:58;21.67;;;11.60;;
72125;SDS011;59999;51.676;22.650;2022-10-17T02:47:42;21.50;;;11.57;;
72125;SDS011;59999;51.676;22.650;2022-10-17T02:50:37;23.85;;;12.43;;
72125;SDS011;59999;51.676;22.650;2022-10-17T02:53:21;21.77;;;11.30;;
72125;SDS011;59999;51.676;22.650;2022-10-17T02:55:53;23.40;;;11.60;;
72125;SDS011;59999;51.676;22.650;2022-10-17T02:58:24;26.15;;;13.10;;
72125;SDS011;59999;51.676;22.650;2022-10-17T03:00:55;21.75;;;12.40;;
72125;SDS011;59999;51.676;22.650;2022-10-17T03:03:26;22.02;;;11.95;;
72125;SDS011;59999;51.676;22.650;2022-10-17T03:05:54;21.48;;;12.02;;
72125;SDS011;59999;51.676;22.650;2022-10-17T03:08:20;21.03;;;10.93;;
72125;SDS011;59999;51.676;22.650;2022-10-17T03:10:47;25.92;;;12.48;;
72125;SDS011;59999;51.676;22.650;2022-10-17T03:13:13;24.05;;;11.90;;
72125;SDS011;59999;51.676;22.650;2022-10-17T03:15:40;21.10;;;11.75;;
72125;SDS011;59999;51.676;22.650;2022-10-17T03:18:06;22.87;;;11.47;;
72125;SDS011;59999;51.676;22.650;2022-10-17T03:20:32;23.63;;;12.25;;
72125;SDS011;59999;51.676;22.650;2022-10-17T03:22:58;22.35;;;11.35;;
72125;SDS011;59999;51.676;22.650;2022-10-17T03:25:25;26.23;;;12.52;;
72125;SDS011;59999;51.676;22.650;2022-10-17T03:27:51;23.90;;;13.00;;
72125;SDS011;59999;51.676;22.650;2022-10-17T03:30:18;27.48;;;12.50;;
72125;SDS011;59999;51.676;22.650;2022-10-17T03:32:43;23.23;;;12.43;;
72125;SDS011;59999;51.676;22.650;2022-10-17T03:35:10;25.88;;;12.00;;
72125;SDS011;59999;51.676;22.650;2022-10-17T03:37:36;23.90;;;11.87;;
72125;SDS011;59999;51.676;22.650;2022-10-17T03:40:02;22.60;;;12.65;;
72125;SDS011;59999;51.676;22.650;2022-10-17T03:42:28;22.20;;;12.35;;
72125;SDS011;59999;51.676;22.650;2022-10-17T03:44:54;24.85;;;12.20;;
72125;SDS011;59999;51.676;22.650;2022-10-17T03:47:20;22.30;;;12.23;;
72125;SDS011;59999;51.676;22.650;2022-10-17T03:49:46;23.88;;;12.15;;
72125;SDS011;59999;51.676;22.650;2022-10-17T03:52:12;23.52;;;12.15;;
72125;SDS011;59999;51.676;22.650;2022-10-17T03:54:38;24.77;;;12.80;;
72125;SDS011;59999;51.676;22.650;2022-10-17T03:57:04;23.33;;;12.07;;
72125;SDS011;59999;51.676;22.650;2022-10-17T03:59:30;27.98;;;12.75;;
72125;SDS011;59999;51.676;22.650;2022-10-17T04:01:56;24.08;;;12.48;;
72125;SDS011;59999;51.676;22.650;2022-10-17T04:04:22;24.77;;;12.95;;
72125;SDS011;59999;51.676;22.650;2022-10-17T04:06:48;25.60;;;12.87;;
72125;SDS011;59999;51.676;22.650;2022-10-17T04:09:14;24.67;;;12.40;;
72125;SDS011;59999;51.676;22.650;2022-10-17T04:11:40;25.30;;;13.60;;
72125;SDS011;59999;51.676;22.650;2022-10-17T04:14:06;26.73;;;13.45;;
72125;SDS011;59999;51.676;22.650;2022-10-17T04:16:32;25.07;;;12.80;;
72125;SDS011;59999;51.676;22.650;2022-10-17T04:18:58;23.42;;;12.77;;
72125;SDS011;59999;51.676;22.650;2022-10-17T04:21:25;24.85;;;13.15;;
72125;SDS011;59999;51.676;22.650;2022-10-17T04:23:53;24.77;;;12.88;;
72125;SDS011;59999;51.676;22.650;2022-10-17T04:26:19;26.40;;;13.07;;
72125;SDS011;59999;51.676;22.650;2022-10-17T04:28:48;25.33;;;12.82;;
72125;SDS011;59999;51.676;22.650;2022-10-17T04:31:14;24.55;;;13.10;;
72125;SDS011;59999;51.676;22.650;2022-10-17T04:33:41;26.15;;;12.40;;
72125;SDS011;59999;51.676;22.650;2022-10-17T04:36:11;27.00;;;12.40;;
72125;SDS011;59999;51.676;22.650;2022-10-17T04:38:39;26.33;;;12.70;;
72125;SDS011;59999;51.676;22.650;2022-10-17T04:41:06;27.33;;;13.32;;
72125;SDS011;59999;51.676;22.650;2022-10-17T04:43:35;25.05;;;13.10;;
72125;SDS011;59999;51.676;22.650;2022-10-17T04:46:03;24.67;;;12.65;;
72125;SDS011;59999;51.676;22.650;2022-10-17T04:48:31;23.17;;;12.57;;
72125;SDS011;59999;51.676;22.650;2022-10-17T04:51:04;22.60;;;12.57;;
72125;SDS011;59999;51.676;22.650;2022-10-17T04:53:34;27.95;;;12.65;;
72125;SDS011;59999;51.676;22.650;2022-10-17T04:56:01;27.35;;;13.68;;
72125;SDS011;59999;51.676;22.650;2022-10-17T04:58:32;27.27;;;13.90;;
72125;SDS011;59999;51.676;22.650;2022-10-17T05:00:58;25.30;;;13.20;;
72125;SDS011;59999;51.676;22.650;2022-10-17T05:03:28;23.08;;;13.30;;
72125;SDS011;59999;51.676;22.650;2022-10-17T05:05:54;24.30;;;12.90;;
72125;SDS011;59999;51.676;22.650;2022-10-17T05:08:20;26.98;;;13.45;;
72125;SDS011;59999;51.676;22.650;2022-10-17T05:10:46;27.97;;;13.60;;
72125;SDS011;59999;51.676;22.650;2022-10-17T05:13:12;22.80;;;12.20;;
72125;SDS011;59999;51.676;22.650;2022-10-17T05:15:38;25.40;;;12.85;;
72125;SDS011;59999;51.676;22.650;2022-10-17T05:18:05;24.47;;;12.67;;
72125;SDS011;59999;51.676;22.650;2022-10-17T05:20:31;24.42;;;13.07;;
72125;SDS011;59999;51.676;22.650;2022-10-17T05:22:58;25.70;;;13.68;;
72125;SDS011;59999;51.676;22.650;2022-10-17T05:25:24;27.42;;;13.80;;
72125;SDS011;59999;51.676;22.650;2022-10-17T05:27:50;25.30;;;13.45;;
72125;SDS011;59999;51.676;22.650;2022-10-17T05:30:16;28.00;;;12.57;;
72125;SDS011;59999;51.676;22.650;2022-10-17T05:32:42;27.90;;;13.75;;
72125;SDS011;59999;51.676;22.650;2022-10-17T05:35:09;24.20;;;13.00;;
72125;SDS011;59999;51.676;22.650;2022-10-17T05:37:35;24.83;;;13.13;;
72125;SDS011;59999;51.676;22.650;2022-10-17T05:40:02;22.90;;;12.50;;
72125;SDS011;59999;51.676;22.650;2022-10-17T05:42:29;29.70;;;14.43;;
72125;SDS011;59999;51.676;22.650;2022-10-17T05:44:55;27.02;;;14.27;;
72125;SDS011;59999;51.676;22.650;2022-10-17T05:47:21;36.00;;;19.00;;
72125;SDS011;59999;51.676;22.650;2022-10-17T05:49:47;27.20;;;14.23;;
72125;SDS011;59999;51.676;22.650;2022-10-17T05:52:13;26.03;;;13.60;;
72125;SDS011;59999;51.676;22.650;2022-10-17T05:54:39;28.17;;;13.25;;
72125;SDS011;59999;51.676;22.650;2022-10-17T05:57:05;28.55;;;14.13;;
72125;SDS011;59999;51.676;22.650;2022-10-17T05:59:31;25.60;;;13.33;;
72125;SDS011;59999;51.676;22.650;2022-10-17T06:01:57;26.80;;;13.27;;
72125;SDS011;59999;51.676;22.650;2022-10-17T06:04:23;26.13;;;13.95;;
72125;SDS011;59999;51.676;22.650;2022-10-17T06:06:49;25.95;;;13.45;;
72125;SDS011;59999;51.676;22.650;2022-10-17T06:09:15;26.50;;;14.50;;
72125;SDS011;59999;51.676;22.650;2022-10-17T06:11:41;29.77;;;14.20;;
72125;SDS011;59999;51.676;22.650;2022-10-17T06:14:07;26.73;;;13.50;;
72125;SDS011;59999;51.676;22.650;2022-10-17T06:16:33;26.60;;;14.30;;
72125;SDS011;59999;51.676;22.650;2022-10-17T06:18:59;26.45;;;13.73;;
72125;SDS011;59999;51.676;22.650;2022-10-17T06:21:25;26.73;;;13.88;;
72125;SDS011;59999;51.676;22.650;2022-10-17T06:23:52;23.95;;;13.95;;
72125;SDS011;59999;51.676;22.650;2022-10-17T06:26:18;27.92;;;14.13;;
72125;SDS011;59999;51.676;22.650;2022-10-17T06:28:44;27.07;;;14.10;;
72125;SDS011;59999;51.676;22.650;2022-10-17T06:31:12;25.23;;;13.50;;
72125;SDS011;59999;51.676;22.650;2022-10-17T06:33:39;24.52;;;13.10;;
72125;SDS011;59999;51.676;22.650;2022-10-17T06:36:07;26.35;;;13.57;;
72125;SDS011;59999;51.676;22.650;2022-10-17T06:38:34;27.20;;;12.88;;
72125;SDS011;59999;51.676;22.650;2022-10-17T06:41:01;26.60;;;13.53;;
72125;SDS011;59999;51.676;22.650;2022-10-17T06:43:35;23.63;;;12.65;;
72125;SDS011;59999;51.676;22.650;2022-10-17T06:46:03;23.92;;;13.10;;
72125;SDS011;59999;51.676;22.650;2022-10-17T06:48:29;22.48;;;12.48;;
72125;SDS011;59999;51.676;22.650;2022-10-17T06:50:58;22.80;;;12.07;;
72125;SDS011;59999;51.676;22.650;2022-10-17T06:53:29;27.00;;;13.63;;
72125;SDS011;59999;51.676;22.650;2022-10-17T06:55:58;22.83;;;12.73;;
72125;SDS011;59999;51.676;22.650;2022-10-17T06:58:29;26.63;;;12.60;;
72125;SDS011;59999;51.676;22.650;2022-10-17T07:00:57;24.02;;;12.63;;
72125;SDS011;59999;51.676;22.650;2022-10-17T07:03:24;23.17;;;13.00;;
72125;SDS011;59999;51.676;22.650;2022-10-17T07:05:51;23.37;;;12.77;;
72125;SDS011;59999;51.676;22.650;2022-10-17T07:08:17;25.67;;;12.65;;
72125;SDS011;59999;51.676;22.650;2022-10-17T07:10:43;23.85;;;13.00;;
72125;SDS011;59999;51.676;22.650;2022-10-17T07:13:09;23.48;;;12.23;;
72125;SDS011;59999;51.676;22.650;2022-10-17T07:15:35;25.60;;;13.67;;
72125;SDS011;59999;51.676;22.650;2022-10-17T07:18:02;25.88;;;13.93;;
72125;SDS011;59999;51.676;22.650;2022-10-17T07:20:28;23.90;;;13.27;;
72125;SDS011;59999;51.676;22.650;2022-10-17T07:22:54;25.35;;;14.13;;
72125;SDS011;59999;51.676;22.650;2022-10-17T07:25:20;28.52;;;14.43;;
72125;SDS011;59999;51.676;22.650;2022-10-17T07:27:49;25.97;;;13.63;;
72125;SDS011;59999;51.676;22.650;2022-10-17T07:30:16;25.58;;;13.40;;
72125;SDS011;59999;51.676;22.650;2022-10-17T07:32:42;24.20;;;12.48;;
72125;SDS011;59999;51.676;22.650;2022-10-17T07:35:09;23.63;;;12.98;;
72125;SDS011;59999;51.676;22.650;2022-10-17T07:37:36;23.03;;;12.80;;
72125;SDS011;59999;51.676;22.650;2022-10-17T07:40:03;23.27;;;12.75;;
72125;SDS011;59999;51.676;22.650;2022-10-17T07:42:31;23.05;;;13.15;;
72125;SDS011;59999;51.676;22.650;2022-10-17T07:44:58;25.13;;;12.95;;
72125;SDS011;59999;51.676;22.650;2022-10-17T07:47:23;23.23;;;12.27;;
72125;SDS011;59999;51.676;22.650;2022-10-17T07:49:50;23.98;;;12.30;;
72125;SDS011;59999;51.676;22.650;2022-10-17T07:52:16;21.45;;;12.27;;
72125;SDS011;59999;51.676;22.650;2022-10-17T07:54:42;22.50;;;12.10;;
72125;SDS011;59999;51.676;22.650;2022-10-17T07:57:08;21.75;;;12.65;;
72125;SDS011;59999;51.676;22.650;2022-10-17T07:59:35;23.20;;;11.70;;
72125;SDS011;59999;51.676;22.650;2022-10-17T08:02:03;23.38;;;12.63;;
72125;SDS011;59999;51.676;22.650;2022-10-17T08:04:29;22.85;;;12.70;;
72125;SDS011;59999;51.676;22.650;2022-10-17T08:06:55;23.95;;;12.88;;
72125;SDS011;59999;51.676;22.650;2022-10-17T08:09:21;25.63;;;11.98;;
72125;SDS011;59999;51.676;22.650;2022-10-17T08:11:47;22.80;;;12.17;;
72125;SDS011;59999;51.676;22.650;2022-10-17T08:14:13;21.45;;;12.85;;
72125;SDS011;59999;51.676;22.650;2022-10-17T08:16:41;23.25;;;12.13;;
72125;SDS011;59999;51.676;22.650;2022-10-17T08:19:07;21.17;;;12.68;;
72125;SDS011;59999;51.676;22.650;2022-10-17T08:21:36;23.07;;;12.77;;
72125;SDS011;59999;51.676;22.650;2022-10-17T08:24:03;26.70;;;14.00;;
72125;SDS011;59999;51.676;22.650;2022-10-17T08:26:29;23.13;;;13.55;;
72125;SDS011;59999;51.676;22.650;2022-10-17T08:28:55;27.27;;;14.05;;
72125;SDS011;59999;51.676;22.650;2022-10-17T08:31:21;26.70;;;13.30;;
72125;SDS011;59999;51.676;22.650;2022-10-17T08:33:48;23.42;;;12.80;;
72125;SDS011;59999;51.676;22.650;2022-10-17T08:36:16;25.90;;;13.63;;
72125;SDS011;59999;51.676;22.650;2022-10-17T08:38:44;24.55;;;12.88;;
72125;SDS011;59999;51.676;22.650;2022-10-17T08:46:27;20.42;;;11.95;;
72125;SDS011;59999;51.676;22.650;2022-10-17T08:49:00;20.83;;;12.55;;
72125;SDS011;59999;51.676;22.650;2022-10-17T08:51:33;25.30;;;12.32;;
72125;SDS011;59999;51.676;22.650;2022-10-17T08:54:10;22.40;;;12.27;;
72125;SDS011;59999;51.676;22.650;2022-10-17T08:56:45;21.77;;;12.63;;
72125;SDS011;59999;51.676;22.650;2022-10-17T08:59:15;21.15;;;11.75;;
72125;SDS011;59999;51.676;22.650;2022-10-17T09:07:00;23.25;;;13.50;;
72125;SDS011;59999;51.676;22.650;2022-10-17T09:09:36;22.93;;;12.90;;
72125;SDS011;59999;51.676;22.650;2022-10-17T09:12:17;26.00;;;12.57;;
72125;SDS011;59999;51.676;22.650;2022-10-17T09:17:54;21.05;;;12.48;;
72125;SDS011;59999;51.676;22.650;2022-10-17T09:20:31;24.83;;;13.25;;
72125;SDS011;59999;51.676;22.650;2022-10-17T09:23:03;38.27;;;17.30;;
72125;SDS011;59999;51.676;22.650;2022-10-17T09:25:39;27.88;;;14.20;;
72125;SDS011;59999;51.676;22.650;2022-10-17T09:30:45;21.67;;;12.48;;
72125;SDS011;59999;51.676;22.650;2022-10-17T09:33:13;23.05;;;14.18;;
72125;SDS011;59999;51.676;22.650;2022-10-17T09:35:41;25.50;;;14.20;;
72125;SDS011;59999;51.676;22.650;2022-10-17T09:38:11;25.13;;;13.40;;
72125;SDS011;59999;51.676;22.650;2022-10-17T09:40:40;24.67;;;13.52;;
72125;SDS011;59999;51.676;22.650;2022-10-17T09:43:07;25.35;;;12.77;;
72125;SDS011;59999;51.676;22.650;2022-10-17T09:45:39;25.88;;;13.32;;
72125;SDS011;59999;51.676;22.650;2022-10-17T09:48:37;24.67;;;12.50;;
72125;SDS011;59999;51.676;22.650;2022-10-17T09:51:06;23.17;;;12.48;;
72125;SDS011;59999;51.676;22.650;2022-10-17T09:53:33;23.17;;;12.93;;
72125;SDS011;59999;51.676;22.650;2022-10-17T09:56:04;21.40;;;12.25;;
72125;SDS011;59999;51.676;22.650;2022-10-17T10:01:18;22.37;;;12.50;;
72125;SDS011;59999;51.676;22.650;2022-10-17T10:03:47;22.52;;;11.85;;
72125;SDS011;59999;51.676;22.650;2022-10-17T10:08:47;23.10;;;12.32;;
72125;SDS011;59999;51.676;22.650;2022-10-17T10:11:53;21.88;;;11.88;;
72125;SDS011;59999;51.676;22.650;2022-10-17T10:16:47;19.65;;;11.90;;
72125;SDS011;59999;51.676;22.650;2022-10-17T10:19:25;20.73;;;11.45;;
72125;SDS011;59999;51.676;22.650;2022-10-17T10:22:03;21.70;;;11.85;;
72125;SDS011;59999;51.676;22.650;2022-10-17T10:24:43;20.90;;;11.18;;
72125;SDS011;59999;51.676;22.650;2022-10-17T10:27:12;18.07;;;11.10;;
72125;SDS011;59999;51.676;22.650;2022-10-17T10:29:42;21.60;;;11.60;;
72125;SDS011;59999;51.676;22.650;2022-10-17T10:32:25;22.05;;;11.35;;
72125;SDS011;59999;51.676;22.650;2022-10-17T10:40:03;20.07;;;10.60;;
72125;SDS011;59999;51.676;22.650;2022-10-17T10:45:10;21.88;;;11.70;;
72125;SDS011;59999;51.676;22.650;2022-10-17T10:47:49;20.63;;;10.88;;
72125;SDS011;59999;51.676;22.650;2022-10-17T10:53:12;16.93;;;10.53;;
72125;SDS011;59999;51.676;22.650;2022-10-17T10:55:45;21.73;;;11.32;;
72125;SDS011;59999;51.676;22.650;2022-10-17T10:58:27;20.67;;;11.55;;
72125;SDS011;59999;51.676;22.650;2022-10-17T11:01:04;19.90;;;10.75;;
72125;SDS011;59999;51.676;22.650;2022-10-17T11:03:40;19.25;;;11.43;;
72125;SDS011;59999;51.676;22.650;2022-10-17T11:06:13;19.57;;;11.10;;
72125;SDS011;59999;51.676;22.650;2022-10-17T11:08:47;17.88;;;10.55;;
72125;SDS011;59999;51.676;22.650;2022-10-17T11:11:33;19.77;;;10.60;;
72125;SDS011;59999;51.676;22.650;2022-10-17T11:14:18;19.83;;;10.38;;
72125;SDS011;59999;51.676;22.650;2022-10-17T11:16:55;19.05;;;10.35;;
72125;SDS011;59999;51.676;22.650;2022-10-17T11:19:32;18.43;;;10.60;;
72125;SDS011;59999;51.676;22.650;2022-10-17T11:24:47;19.35;;;10.68;;
72125;SDS011;59999;51.676;22.650;2022-10-17T11:27:21;20.13;;;10.45;;
72125;SDS011;59999;51.676;22.650;2022-10-17T11:29:49;15.23;;;9.45;;
72125;SDS011;59999;51.676;22.650;2022-10-17T11:32:20;17.37;;;10.13;;
72125;SDS011;59999;51.676;22.650;2022-10-17T11:34:52;18.80;;;10.55;;
72125;SDS011;59999;51.676;22.650;2022-10-17T11:37:25;18.17;;;11.35;;
72125;SDS011;59999;51.676;22.650;2022-10-17T11:40:02;17.55;;;10.30;;
72125;SDS011;59999;51.676;22.650;2022-10-17T11:42:52;18.55;;;10.85;;
72125;SDS011;59999;51.676;22.650;2022-10-17T11:45:35;17.57;;;10.37;;
72125;SDS011;59999;51.676;22.650;2022-10-17T11:48:11;30.98;;;11.93;;
72125;SDS011;59999;51.676;22.650;2022-10-17T11:50:45;20.00;;;11.10;;
72125;SDS011;59999;51.676;22.650;2022-10-17T11:53:24;18.27;;;10.85;;
72125;SDS011;59999;51.676;22.650;2022-10-17T11:55:53;17.92;;;10.30;;
72125;SDS011;59999;51.676;22.650;2022-10-17T12:06:42;18.98;;;10.50;;
72125;SDS011;59999;51.676;22.650;2022-10-17T12:12:22;18.23;;;10.40;;
72125;SDS011;59999;51.676;22.650;2022-10-17T12:14:52;16.40;;;10.13;;
72125;SDS011;59999;51.676;22.650;2022-10-17T12:17:24;19.05;;;10.90;;
72125;SDS011;59999;51.676;22.650;2022-10-17T12:20:12;18.55;;;10.40;;
72125;SDS011;59999;51.676;22.650;2022-10-17T12:22:45;20.05;;;10.90;;
72125;SDS011;59999;51.676;22.650;2022-10-17T12:25:31;22.23;;;10.67;;
72125;SDS011;59999;51.676;22.650;2022-10-17T12:44:49;17.45;;;10.38;;
72125;SDS011;59999;51.676;22.650;2022-10-17T12:49:48;19.52;;;10.55;;
72125;SDS011;59999;51.676;22.650;2022-10-17T12:52:44;18.47;;;9.77;;
72125;SDS011;59999;51.676;22.650;2022-10-17T12:55:13;16.63;;;9.30;;
72125;SDS011;59999;51.676;22.650;2022-10-17T13:02:52;16.63;;;9.90;;
72125;SDS011;59999;51.676;22.650;2022-10-17T13:05:27;18.97;;;9.67;;
72125;SDS011;59999;51.676;22.650;2022-10-17T13:07:56;17.63;;;9.38;;
72125;SDS011;59999;51.676;22.650;2022-10-17T13:10:26;17.30;;;9.55;;
72125;SDS011;59999;51.676;22.650;2022-10-17T13:13:37;15.82;;;8.95;;
72125;SDS011;59999;51.676;22.650;2022-10-17T13:15:46;15.23;;;8.88;;
72125;SDS011;59999;51.676;22.650;2022-10-17T13:18:17;17.73;;;8.47;;
72125;SDS011;59999;51.676;22.650;2022-10-17T13:20:54;17.80;;;10.02;;
72125;SDS011;59999;51.676;22.650;2022-10-17T13:23:28;17.83;;;9.38;;
72125;SDS011;59999;51.676;22.650;2022-10-17T13:26:03;16.30;;;9.10;;
72125;SDS011;59999;51.676;22.650;2022-10-17T13:31:39;17.93;;;10.23;;
72125;SDS011;59999;51.676;22.650;2022-10-17T13:34:23;16.80;;;10.43;;
72125;SDS011;59999;51.676;22.650;2022-10-17T13:36:54;16.73;;;9.88;;
72125;SDS011;59999;51.676;22.650;2022-10-17T13:39:22;19.70;;;11.38;;
72125;SDS011;59999;51.676;22.650;2022-10-17T13:41:51;20.92;;;11.88;;
72125;SDS011;59999;51.676;22.650;2022-10-17T13:44:19;22.47;;;11.13;;
72125;SDS011;59999;51.676;22.650;2022-10-17T13:46:47;17.83;;;10.60;;
72125;SDS011;59999;51.676;22.650;2022-10-17T13:49:15;20.55;;;10.80;;
72125;SDS011;59999;51.676;22.650;2022-10-17T13:51:44;18.77;;;10.70;;
72125;SDS011;59999;51.676;22.650;2022-10-17T13:56:56;18.77;;;10.10;;
72125;SDS011;59999;51.676;22.650;2022-10-17T13:59:44;19.13;;;11.20;;
72125;SDS011;59999;51.676;22.650;2022-10-17T14:02:13;17.80;;;10.80;;
72125;SDS011;59999;51.676;22.650;2022-10-17T14:04:41;18.40;;;10.73;;
72125;SDS011;59999;51.676;22.650;2022-10-17T14:12:58;18.63;;;11.57;;
72125;SDS011;59999;51.676;22.650;2022-10-17T14:15:28;18.30;;;10.93;;
72125;SDS011;59999;51.676;22.650;2022-10-17T14:17:57;21.55;;;12.93;;
72125;SDS011;59999;51.676;22.650;2022-10-17T14:20:25;19.42;;;11.75;;
72125;SDS011;59999;51.676;22.650;2022-10-17T14:22:56;20.37;;;12.00;;
72125;SDS011;59999;51.676;22.650;2022-10-17T14:25:27;18.95;;;11.48;;
72125;SDS011;59999;51.676;22.650;2022-10-17T14:28:02;23.13;;;11.90;;
72125;SDS011;59999;51.676;22.650;2022-10-17T14:30:46;22.08;;;11.95;;
72125;SDS011;59999;51.676;22.650;2022-10-17T14:33:29;29.67;;;14.93;;
72125;SDS011;59999;51.676;22.650;2022-10-17T14:35:56;26.30;;;13.00;;
72125;SDS011;59999;51.676;22.650;2022-10-17T14:38:24;31.75;;;15.73;;
72125;SDS011;59999;51.676;22.650;2022-10-17T14:40:54;25.42;;;13.68;;
72125;SDS011;59999;51.676;22.650;2022-10-17T14:43:24;23.42;;;13.27;;
72125;SDS011;59999;51.676;22.650;2022-10-17T14:45:55;23.08;;;13.10;;
72125;SDS011;59999;51.676;22.650;2022-10-17T14:48:25;22.50;;;12.93;;
72125;SDS011;59999;51.676;22.650;2022-10-17T14:53:38;20.98;;;12.15;;
72125;SDS011;59999;51.676;22.650;2022-10-17T14:59:07;24.38;;;13.00;;
72125;SDS011;59999;51.676;22.650;2022-10-17T15:01:36;26.33;;;12.93;;
72125;SDS011;59999;51.676;22.650;2022-10-17T15:04:02;26.45;;;15.13;;
72125;SDS011;59999;51.676;22.650;2022-10-17T15:06:29;27.83;;;16.45;;
72125;SDS011;59999;51.676;22.650;2022-10-17T15:08:58;27.90;;;15.85;;
72125;SDS011;59999;51.676;22.650;2022-10-17T15:11:24;22.57;;;12.27;;
72125;SDS011;59999;51.676;22.650;2022-10-17T15:13:50;33.83;;;13.00;;
72125;SDS011;59999;51.676;22.650;2022-10-17T15:16:20;27.17;;;14.35;;
72125;SDS011;59999;51.676;22.650;2022-10-17T15:18:49;29.88;;;16.17;;
72125;SDS011;59999;51.676;22.650;2022-10-17T15:21:16;34.45;;;15.98;;
72125;SDS011;59999;51.676;22.650;2022-10-17T15:23:44;31.67;;;15.02;;
72125;SDS011;59999;51.676;22.650;2022-10-17T15:26:20;30.47;;;16.00;;
72125;SDS011;59999;51.676;22.650;2022-10-17T15:28:50;29.02;;;16.13;;
72125;SDS011;59999;51.676;22.650;2022-10-17T15:31:17;28.35;;;15.77;;
72125;SDS011;59999;51.676;22.650;2022-10-17T15:33:45;25.17;;;13.57;;
72125;SDS011;59999;51.676;22.650;2022-10-17T15:36:22;27.00;;;13.57;;
72125;SDS011;59999;51.676;22.650;2022-10-17T15:38:50;25.90;;;13.83;;
72125;SDS011;59999;51.676;22.650;2022-10-17T15:41:19;31.70;;;16.65;;
72125;SDS011;59999;51.676;22.650;2022-10-17T15:43:47;35.25;;;21.15;;
72125;SDS011;59999;51.676;22.650;2022-10-17T15:46:14;79.97;;;47.22;;
72125;SDS011;59999;51.676;22.650;2022-10-17T15:48:49;54.90;;;33.58;;
72125;SDS011;59999;51.676;22.650;2022-10-17T15:51:16;76.73;;;45.73;;
72125;SDS011;59999;51.676;22.650;2022-10-17T15:53:42;151.43;;;76.97;;
72125;SDS011;59999;51.676;22.650;2022-10-17T15:58:48;195.80;;;96.53;;
72125;SDS011;59999;51.676;22.650;2022-10-17T16:01:18;105.70;;;50.65;;
72125;SDS011;59999;51.676;22.650;2022-10-17T16:03:49;74.40;;;37.47;;
72125;SDS011;59999;51.676;22.650;2022-10-17T16:06:19;57.83;;;29.88;;
72125;SDS011;59999;51.676;22.650;2022-10-17T16:08:46;46.78;;;23.38;;
72125;SDS011;59999;51.676;22.650;2022-10-17T16:13:51;36.25;;;18.67;;
72125;SDS011;59999;51.676;22.650;2022-10-17T16:16:19;42.33;;;20.37;;
72125;SDS011;59999;51.676;22.650;2022-10-17T16:18:47;50.15;;;26.92;;
72125;SDS011;59999;51.676;22.650;2022-10-17T16:21:13;78.40;;;38.88;;
72125;SDS011;59999;51.676;22.650;2022-10-17T16:23:41;80.35;;;39.03;;
72125;SDS011;59999;51.676;22.650;2022-10-17T16:26:07;60.15;;;28.48;;
72125;SDS011;59999;51.676;22.650;2022-10-17T16:28:34;86.50;;;36.83;;
72125;SDS011;59999;51.676;22.650;2022-10-17T16:31:00;104.25;;;42.38;;